createdAt,value
2022-08-10T00:01:53.590Z,102787.16
2022-08-10T00:04:24.574Z,102792.31
2022-08-10T00:06:55.520Z,102793.25
2022-08-10T00:09:23.385Z,102791.63
2022-08-10T00:11:50.385Z,102793.81
2022-08-10T00:14:17.153Z,102793.94
2022-08-10T00:16:43.699Z,102793.38
2022-08-10T00:19:10.288Z,102796.56
2022-08-10T00:21:37.438Z,102798.34
2022-08-10T00:24:04.349Z,102793.50
2022-08-10T00:28:00.848Z,102792.22
2022-08-10T00:29:17.394Z,102792.56
2022-08-10T00:31:58.260Z,102790.88
2022-08-10T00:34:30.937Z,102790.56
2022-08-10T00:36:57.823Z,102793.91
2022-08-10T00:39:25.252Z,102796.16
2022-08-10T00:42:02.182Z,102794.81
2022-08-10T00:44:34.784Z,102802.97
2022-08-10T00:47:01.311Z,102796.81
2022-08-10T00:49:28.697Z,102797.38
2022-08-10T00:51:55.451Z,102795.44
2022-08-10T00:54:24.615Z,102797.38
2022-08-10T00:57:16.737Z,102781.94
2022-08-10T00:59:57.908Z,102790.53
2022-08-10T01:02:25.679Z,102787.81
2022-08-10T01:05:00.050Z,102792.03
2022-08-10T01:07:46.229Z,102787.56
2022-08-10T01:10:44.680Z,102779.09
2022-08-10T01:13:35.491Z,102786.53
2022-08-10T01:16:13.356Z,102783.34
2022-08-10T01:19:06.618Z,102779.56
2022-08-10T01:21:39.106Z,102777.50
2022-08-10T01:24:26.715Z,102778.66
2022-08-10T01:26:56.131Z,102778.88
2022-08-10T01:29:39.135Z,102768.25
2022-08-10T01:32:08.852Z,102766.91
2022-08-10T01:34:50.753Z,102768.72
2022-08-10T01:37:20.274Z,102768.97
2022-08-10T01:39:52.042Z,102763.94
2022-08-10T01:42:21.893Z,102770.31
2022-08-10T01:44:55.003Z,102760.63
2022-08-10T01:47:43.930Z,102763.34
2022-08-10T01:50:18.519Z,102759.38
2022-08-10T01:52:48.836Z,102760.53
2022-08-10T01:55:16.967Z,102758.25
2022-08-10T01:57:46.148Z,102762.56
2022-08-10T02:00:13.608Z,102759.25
2022-08-10T02:02:42.433Z,102759.59
2022-08-10T02:05:11.568Z,102763.25
2022-08-10T02:07:40.544Z,102754.13
2022-08-10T02:10:12.544Z,102767.25
2022-08-10T02:12:42.122Z,102756.28
2022-08-10T02:15:13.215Z,102769.88
2022-08-10T02:17:59.460Z,102768.13
2022-08-10T02:20:34.444Z,102764.84
2022-08-10T02:23:17.417Z,102771.81
2022-08-10T02:25:45.286Z,102771.56
2022-08-10T02:28:30.385Z,102774.88
2022-08-10T02:31:08.801Z,102779.91
2022-08-10T02:33:45.562Z,102769.63
2022-08-10T02:36:27.788Z,102769.03
2022-08-10T02:38:58.092Z,102769.09
2022-08-10T02:45:00.994Z,102772.53
2022-08-10T02:45:29.279Z,102774.47
2022-08-10T02:47:20.000Z,102763.81
2022-08-10T02:49:55.661Z,102760.44
2022-08-10T02:52:27.980Z,102752.97
2022-08-10T02:55:06.105Z,102752.84
2022-08-10T02:58:16.988Z,102756.72
2022-08-10T03:00:42.441Z,102738.25
2022-08-10T03:03:15.738Z,102745.31
2022-08-10T03:05:43.643Z,102740.84
2022-08-10T03:08:12.267Z,102747.44
2022-08-10T03:10:41.846Z,102746.66
2022-08-10T03:13:10.974Z,102745.31
2022-08-10T03:15:38.873Z,102748.59
2022-08-10T03:18:06.423Z,102743.56
2022-08-10T03:20:40.242Z,102740.38
2022-08-10T03:23:13.946Z,102739.03
2022-08-10T03:25:53.381Z,102746.75
2022-08-10T03:28:26.838Z,102741.06
2022-08-10T03:30:54.626Z,102743.81
2022-08-10T03:33:22.618Z,102732.13
2022-08-10T03:36:44.088Z,102729.06
2022-08-10T03:38:40.555Z,102727.91
2022-08-10T03:41:11.481Z,102731.25
2022-08-10T03:43:46.416Z,102727.13
2022-08-10T03:46:15.379Z,102732.00
2022-08-10T03:48:48.913Z,102726.84
2022-08-10T03:51:18.647Z,102730.28
2022-08-10T03:54:04.974Z,102727.41
2022-08-10T03:56:33.269Z,102724.19
2022-08-10T03:59:01.278Z,102721.53
2022-08-10T04:02:41.400Z,102737.03
2022-08-10T04:04:20.846Z,102724.28
2022-08-10T04:06:54.960Z,102722.16
2022-08-10T04:09:42.859Z,102722.69
2022-08-10T04:12:16.474Z,102726.75
2022-08-10T04:14:50.666Z,102724.97
2022-08-10T04:17:56.269Z,102730.44
2022-08-10T04:20:31.485Z,102726.09
2022-08-10T04:23:06.450Z,102727.09
2022-08-10T04:25:33.805Z,102720.22
2022-08-10T04:28:00.571Z,102725.75
2022-08-10T04:30:31.562Z,102729.50
2022-08-10T04:32:59.798Z,102733.22
2022-08-10T04:35:29.067Z,102731.69
2022-08-10T04:37:58.106Z,102733.91
2022-08-10T04:40:30.211Z,102735.50
2022-08-10T04:43:11.828Z,102733.78
2022-08-10T04:45:48.611Z,102739.50
2022-08-10T04:48:42.867Z,102738.06
2022-08-10T04:51:18.287Z,102725.50
2022-08-10T04:54:04.022Z,102734.19
2022-08-10T04:56:33.438Z,102740.19
2022-08-10T04:59:00.485Z,102737.25
2022-08-10T05:01:27.559Z,102735.16
2022-08-10T05:04:35.131Z,102733.09
2022-08-10T05:07:00.479Z,102734.63
2022-08-10T05:09:27.030Z,102725.56
2022-08-10T05:11:53.513Z,102729.56
2022-08-10T05:14:20.000Z,102734.22
2022-08-10T05:16:46.486Z,102733.78
2022-08-10T05:19:12.974Z,102730.34
2022-08-10T05:22:02.255Z,102726.63
2022-08-10T05:24:25.988Z,102728.03
2022-08-10T05:27:09.136Z,102732.94
2022-08-10T05:29:36.335Z,102727.34
2022-08-10T05:32:03.115Z,102734.53
2022-08-10T05:34:30.269Z,102739.63
2022-08-10T05:36:58.029Z,102733.22
2022-08-10T05:39:30.594Z,102728.91
2022-08-10T05:42:01.129Z,102738.41
2022-08-10T05:44:28.639Z,102735.91
2022-08-10T05:46:55.149Z,102742.34
2022-08-10T05:49:21.654Z,102738.84
2022-08-10T05:51:48.147Z,102747.81
2022-08-10T05:54:17.835Z,102743.13
2022-08-10T05:56:55.827Z,102745.88
2022-08-10T06:00:33.034Z,102752.59
2022-08-10T06:02:40.621Z,102751.69
2022-08-10T06:05:25.980Z,102749.44
2022-08-10T06:07:59.586Z,102746.81
2022-08-10T06:10:32.358Z,102751.25
2022-08-10T06:13:29.874Z,102747.16
2022-08-10T06:16:05.513Z,102750.31
2022-08-10T06:18:32.673Z,102743.38
2022-08-10T06:21:00.802Z,102743.38
2022-08-10T06:23:29.675Z,102736.59
2022-08-10T06:26:10.405Z,102740.28
2022-08-10T06:28:44.172Z,102733.16
2022-08-10T06:31:47.162Z,102733.81
2022-08-10T06:34:17.464Z,102735.66
2022-08-10T06:36:45.938Z,102740.75
2022-08-10T06:39:32.209Z,102742.38
2022-08-10T06:42:16.127Z,102733.75
2022-08-10T06:45:07.595Z,102739.66
2022-08-10T06:47:59.572Z,102747.97
2022-08-10T06:50:56.099Z,102744.84
2022-08-10T06:53:52.186Z,102739.19
2022-08-10T06:56:35.758Z,102741.72
2022-08-10T06:59:27.775Z,102739.59
2022-08-10T07:02:04.726Z,102744.19
2022-08-10T07:04:35.829Z,102747.91
2022-08-10T07:07:05.525Z,102754.63
2022-08-10T07:09:36.482Z,102752.66
2022-08-10T07:12:07.718Z,102754.41
2022-08-10T07:14:42.371Z,102759.41
2022-08-10T07:17:19.031Z,102756.06
2022-08-10T07:19:49.489Z,102752.69
2022-08-10T07:23:08.261Z,102752.16
2022-08-10T07:25:08.642Z,102751.25
2022-08-10T07:27:39.293Z,102746.09
2022-08-10T07:30:22.423Z,102746.84
2022-08-10T07:32:52.506Z,102739.22
2022-08-10T07:35:21.455Z,102744.88
2022-08-10T07:37:51.306Z,102733.59
2022-08-10T07:40:20.467Z,102744.81
2022-08-10T07:42:54.095Z,102745.31
2022-08-10T07:45:20.875Z,102742.81
2022-08-10T07:48:06.674Z,102738.75
2022-08-10T07:50:36.638Z,102740.63
2022-08-10T07:53:04.503Z,102740.00
2022-08-10T07:56:04.634Z,102743.72
2022-08-10T07:58:22.109Z,102741.47
2022-08-10T08:00:52.169Z,102739.28
2022-08-10T08:03:24.998Z,102744.91
2022-08-10T08:06:02.603Z,102745.88
2022-08-10T08:08:33.516Z,102746.88
2022-08-10T08:11:01.524Z,102746.13
2022-08-10T08:13:29.371Z,102736.25
2022-08-10T08:16:16.786Z,102745.94
2022-08-10T08:18:58.090Z,102746.78
2022-08-10T08:24:06.838Z,102747.00
2022-08-10T08:24:30.768Z,102736.06
2022-08-10T08:27:00.571Z,102738.50
2022-08-10T08:29:28.349Z,102739.00
2022-08-10T08:32:02.655Z,102743.13
2022-08-10T08:34:36.304Z,102743.19
2022-08-10T08:37:04.197Z,102736.84
2022-08-10T08:39:36.862Z,102745.69
2022-08-10T08:42:35.343Z,102738.28
2022-08-10T08:45:23.232Z,102732.75
2022-08-10T08:48:15.630Z,102737.53
2022-08-10T08:50:59.682Z,102732.41
2022-08-10T08:54:00.967Z,102727.72
2022-08-10T08:57:11.318Z,102730.13
2022-08-10T08:59:56.262Z,102724.56
2022-08-10T09:03:00.211Z,102716.25
2022-08-10T09:05:58.292Z,102716.22
2022-08-10T09:08:45.160Z,102716.22
2022-08-10T09:11:36.593Z,102712.22
2022-08-10T09:14:25.876Z,102705.44
2022-08-10T09:16:59.337Z,102704.66
2022-08-10T09:19:38.346Z,102703.41
2022-08-10T09:22:18.890Z,102702.22
2022-08-10T09:25:09.157Z,102715.22
2022-08-10T09:27:45.521Z,102709.97
2022-08-10T09:30:19.145Z,102707.22
2022-08-10T09:36:19.798Z,102704.34
2022-08-10T09:36:24.975Z,102689.97
2022-08-10T09:38:57.222Z,102697.38
2022-08-10T09:41:35.945Z,102687.66
2022-08-10T09:44:57.536Z,102682.19
2022-08-10T09:48:01.179Z,102687.66
2022-08-10T09:50:50.076Z,102682.03
2022-08-10T09:53:48.469Z,102676.13
2022-08-10T09:56:29.612Z,102677.53
2022-08-10T09:59:27.175Z,102672.16
2022-08-10T10:02:24.606Z,102663.09
2022-08-10T10:05:17.374Z,102668.59
2022-08-10T10:08:03.500Z,102661.44
2022-08-10T10:10:46.621Z,102660.44
2022-08-10T10:13:41.652Z,102654.31
2022-08-10T10:16:25.889Z,102656.00
2022-08-10T10:19:15.286Z,102651.53
2022-08-10T10:22:11.061Z,102647.63
2022-08-10T10:24:47.697Z,102644.47
2022-08-10T10:27:56.652Z,102639.91
2022-08-10T10:30:26.203Z,102633.78
2022-08-10T10:33:20.316Z,102638.72
2022-08-10T10:35:54.998Z,102628.13
2022-08-10T10:38:26.892Z,102628.38
2022-08-10T10:41:13.283Z,102634.66
2022-08-10T10:44:03.570Z,102628.13
2022-08-10T10:47:14.337Z,102614.16
2022-08-10T10:50:03.295Z,102602.75
2022-08-10T10:52:29.836Z,102612.34
2022-08-10T10:55:12.526Z,102612.41
2022-08-10T10:58:01.490Z,102610.41
2022-08-10T11:00:39.511Z,102598.66
2022-08-10T11:03:26.719Z,102599.84
2022-08-10T11:06:09.685Z,102592.53
2022-08-10T11:08:47.140Z,102592.19
2022-08-10T11:12:01.978Z,102588.25
2022-08-10T11:14:35.826Z,102591.06
2022-08-10T11:17:39.007Z,102584.19
2022-08-10T11:20:14.424Z,102587.25
2022-08-10T11:23:18.334Z,102582.47
2022-08-10T11:25:51.570Z,102580.53
2022-08-10T11:28:25.862Z,102582.97
2022-08-10T11:31:01.602Z,102578.91
2022-08-10T11:34:48.383Z,102579.94
2022-08-10T11:37:04.799Z,102588.69
2022-08-10T11:39:48.534Z,102579.09
2022-08-10T11:42:33.225Z,102581.91
2022-08-10T11:45:14.731Z,102580.69
2022-08-10T11:47:53.932Z,102575.41
2022-08-10T11:50:23.078Z,102564.19
2022-08-10T11:53:17.861Z,102562.50
2022-08-10T11:55:54.406Z,102563.16
2022-08-10T11:58:41.990Z,102565.78
2022-08-10T12:01:11.450Z,102549.03
2022-08-10T12:03:41.438Z,102550.09
2022-08-10T12:06:13.662Z,102547.44
2022-08-10T12:10:03.974Z,102553.59
2022-08-10T12:11:34.102Z,102543.03
2022-08-10T12:14:24.288Z,102540.56
2022-08-10T12:16:59.340Z,102531.59
2022-08-10T12:20:01.429Z,102533.31
2022-08-10T12:22:31.615Z,102536.59
2022-08-10T12:25:03.455Z,102531.44
2022-08-10T12:27:54.912Z,102537.53
2022-08-10T12:30:36.279Z,102534.84
2022-08-10T12:34:01.816Z,102526.31
2022-08-10T12:36:37.297Z,102530.28
2022-08-10T12:39:18.964Z,102526.22
2022-08-10T12:41:56.857Z,102516.19
2022-08-10T12:44:50.056Z,102510.47
2022-08-10T12:47:35.704Z,102517.84
2022-08-10T12:50:33.508Z,102511.97
2022-08-10T12:53:06.952Z,102511.13
2022-08-10T12:55:34.504Z,102509.16
2022-08-10T12:58:10.762Z,102502.72
2022-08-10T13:01:14.543Z,102493.97
2022-08-10T13:04:20.874Z,102498.00
2022-08-10T13:06:27.774Z,102500.81
2022-08-10T13:09:10.123Z,102494.78
2022-08-10T13:12:36.916Z,102489.31
2022-08-10T13:14:59.803Z,102489.47
2022-08-10T13:17:38.892Z,102487.09
2022-08-10T13:20:18.279Z,102472.88
2022-08-10T13:22:48.351Z,102484.84
2022-08-10T13:25:20.415Z,102475.59
2022-08-10T13:28:00.692Z,102476.72
2022-08-10T13:30:37.610Z,102471.63
2022-08-10T13:33:07.195Z,102461.78
2022-08-10T13:35:36.054Z,102466.84
2022-08-10T13:38:04.212Z,102459.94
2022-08-10T13:40:32.561Z,102453.19
2022-08-10T13:43:02.497Z,102453.13
2022-08-10T13:45:30.337Z,102454.34
2022-08-10T13:48:10.573Z,102444.22
2022-08-10T13:50:40.057Z,102450.84
2022-08-10T13:53:14.467Z,102445.50
2022-08-10T13:55:53.809Z,102441.66
2022-08-10T13:58:32.158Z,102437.94
2022-08-10T14:01:09.960Z,102427.75
2022-08-10T14:03:39.878Z,102429.75
2022-08-10T14:06:11.945Z,102425.41
2022-08-10T14:08:39.439Z,102425.47
2022-08-10T14:11:12.740Z,102414.06
2022-08-10T14:14:04.129Z,102413.53
2022-08-10T14:16:32.138Z,102413.97
2022-08-10T14:19:04.114Z,102405.03
2022-08-10T14:21:30.922Z,102404.59
2022-08-10T14:23:58.146Z,102400.03
2022-08-10T14:26:28.822Z,102399.31
2022-08-10T14:29:02.430Z,102391.44
2022-08-10T14:31:34.458Z,102398.13
2022-08-10T14:34:03.755Z,102396.66
2022-08-10T14:36:52.218Z,102391.97
2022-08-10T14:39:43.707Z,102386.81
2022-08-10T14:42:26.859Z,102389.97
2022-08-10T14:44:57.667Z,102381.59
2022-08-10T14:48:01.983Z,102387.91
2022-08-10T14:50:32.567Z,102386.31
2022-08-10T14:53:09.205Z,102387.53
2022-08-10T14:55:58.699Z,102389.56
2022-08-10T14:58:27.743Z,102386.16
2022-08-10T15:00:56.221Z,102380.34
2022-08-10T15:03:59.311Z,102384.09
2022-08-10T15:06:17.178Z,102377.53
2022-08-10T15:08:46.996Z,102371.94
2022-08-10T15:12:15.402Z,102375.19
2022-08-10T15:14:41.253Z,102366.25
2022-08-10T15:16:55.017Z,102368.25
2022-08-10T15:19:34.310Z,102368.00
2022-08-10T15:22:36.288Z,102357.25
2022-08-10T15:25:17.893Z,102366.06
2022-08-10T15:27:53.689Z,102362.16
2022-08-10T15:30:30.408Z,102374.72
2022-08-10T15:33:59.479Z,102370.09
2022-08-10T15:36:33.557Z,102373.06
2022-08-10T15:39:03.458Z,102368.81
2022-08-10T15:41:57.414Z,102361.56
2022-08-10T15:44:55.712Z,102362.88
2022-08-10T15:47:45.210Z,102357.69
2022-08-10T15:50:23.460Z,102356.13
2022-08-10T15:53:00.403Z,102350.53
2022-08-10T15:55:44.108Z,102360.69
2022-08-10T15:58:39.013Z,102359.22
2022-08-10T16:02:13.517Z,102358.88
2022-08-10T16:04:19.422Z,102344.78
2022-08-10T16:06:57.479Z,102353.09
2022-08-10T16:10:22.196Z,102345.41
2022-08-10T16:12:59.107Z,102350.81
2022-08-10T16:15:29.161Z,102339.75
2022-08-10T16:18:09.011Z,102349.75
2022-08-10T16:21:03.878Z,102348.63
2022-08-10T16:23:37.901Z,102337.19
2022-08-10T16:26:14.525Z,102339.28
2022-08-10T16:28:49.920Z,102342.44
2022-08-10T16:31:23.214Z,102336.00
2022-08-10T16:33:54.938Z,102337.19
2022-08-10T16:36:29.987Z,102337.13
2022-08-10T16:38:58.434Z,102335.78
2022-08-10T16:42:02.137Z,102326.00
2022-08-10T16:44:18.561Z,102328.34
2022-08-10T16:46:47.070Z,102318.78
2022-08-10T16:49:16.603Z,102318.38
2022-08-10T16:51:48.131Z,102320.50
2022-08-10T16:54:22.412Z,102319.97
2022-08-10T16:56:53.286Z,102308.28
2022-08-10T16:59:24.632Z,102322.88
2022-08-10T17:01:54.342Z,102319.41
2022-08-10T17:04:23.539Z,102314.25
2022-08-10T17:06:57.094Z,102305.91
2022-08-10T17:09:33.979Z,102312.81
2022-08-10T17:12:10.414Z,102305.28
2022-08-10T17:14:43.288Z,102309.06
2022-08-10T17:17:19.777Z,102314.38
2022-08-10T17:19:47.366Z,102311.25
2022-08-10T17:22:17.473Z,102309.31
2022-08-10T17:24:50.056Z,102309.91
2022-08-10T17:28:04.169Z,102305.97
2022-08-10T17:30:13.890Z,102313.13
2022-08-10T17:32:53.776Z,102309.31
2022-08-10T17:35:24.623Z,102307.00
2022-08-10T17:37:57.940Z,102309.47
2022-08-10T17:40:27.436Z,102310.41
2022-08-10T17:42:55.729Z,102300.44
2022-08-10T17:45:46.693Z,102302.50
2022-08-10T17:48:15.900Z,102304.16
2022-08-10T17:50:43.191Z,102300.22
2022-08-10T17:53:20.441Z,102302.28
2022-08-10T17:55:53.032Z,102300.28
2022-08-10T17:58:21.271Z,102304.03
2022-08-10T18:00:57.497Z,102309.25
2022-08-10T18:03:44.042Z,102304.69
2022-08-10T18:06:15.715Z,102307.19
2022-08-10T18:08:54.752Z,102299.31
2022-08-10T18:11:25.155Z,102304.13
2022-08-10T18:14:00.753Z,102297.47
2022-08-10T18:16:33.177Z,102298.25
2022-08-10T18:19:06.876Z,102302.69
2022-08-10T18:21:34.532Z,102306.34
2022-08-10T18:24:07.698Z,102306.03
2022-08-10T18:26:36.640Z,102310.47
2022-08-10T18:29:08.813Z,102315.44
2022-08-10T18:31:38.515Z,102318.50
2022-08-10T18:34:07.698Z,102324.19
2022-08-10T18:36:43.042Z,102320.69
2022-08-10T18:39:12.183Z,102318.47
2022-08-10T18:42:05.188Z,102313.03
2022-08-10T18:44:34.933Z,102320.75
2022-08-10T18:47:09.248Z,102318.84
2022-08-10T18:49:38.430Z,102315.31
2022-08-10T18:52:08.336Z,102330.69
2022-08-10T18:55:02.435Z,102330.88
2022-08-10T18:57:47.246Z,102328.16
2022-08-10T19:00:17.906Z,102326.97
2022-08-10T19:03:10.154Z,102328.19
2022-08-10T19:05:58.974Z,102328.69
2022-08-10T19:08:49.003Z,102335.63
2022-08-10T19:11:53.738Z,102330.28
2022-08-10T19:14:32.964Z,102333.16
2022-08-10T19:18:04.053Z,102329.25
2022-08-10T19:20:30.388Z,102329.25
2022-08-10T19:23:06.446Z,102340.56
2022-08-10T19:26:32.974Z,102345.16
2022-08-10T19:28:38.135Z,102344.34
2022-08-10T19:31:15.102Z,102344.06
2022-08-10T19:33:47.360Z,102348.56
2022-08-10T19:36:35.692Z,102346.53
2022-08-10T19:39:20.677Z,102348.22
2022-08-10T19:41:56.582Z,102355.75
2022-08-10T19:44:51.264Z,102349.84
2022-08-10T19:47:24.828Z,102348.38
2022-08-10T19:50:09.186Z,102342.03
2022-08-10T19:52:45.617Z,102355.91
2022-08-10T19:55:25.569Z,102359.19
2022-08-10T19:57:58.421Z,102347.34
2022-08-10T20:00:35.443Z,102356.47
2022-08-10T20:03:16.503Z,102351.78
2022-08-10T20:06:13.189Z,102344.25
2022-08-10T20:08:55.268Z,102345.44
2022-08-10T20:11:44.442Z,102345.50
2022-08-10T20:14:22.698Z,102352.66
2022-08-10T20:16:52.622Z,102350.69
2022-08-10T20:19:52.587Z,102349.53
2022-08-10T20:22:29.519Z,102355.91
2022-08-10T20:25:08.747Z,102358.75
2022-08-10T20:28:15.254Z,102355.22
2022-08-10T20:30:46.685Z,102351.25
2022-08-10T20:33:18.070Z,102353.28
2022-08-10T20:35:53.861Z,102352.84
2022-08-10T20:38:27.484Z,102352.47
2022-08-10T20:41:06.038Z,102354.47
2022-08-10T20:43:55.608Z,102344.97
2022-08-10T20:46:25.029Z,102351.31
2022-08-10T20:49:04.238Z,102354.91
2022-08-10T20:51:57.996Z,102361.25
2022-08-10T20:54:32.950Z,102364.06
2022-08-10T20:57:55.647Z,102358.13
2022-08-10T21:00:12.857Z,102356.94
2022-08-10T21:02:49.550Z,102358.94
2022-08-10T21:05:43.068Z,102352.22
2022-08-10T21:08:30.923Z,102348.66
2022-08-10T21:11:20.374Z,102360.16
2022-08-10T21:14:21.012Z,102352.66
2022-08-10T21:17:00.537Z,102350.63
2022-08-10T21:19:38.835Z,102359.34
2022-08-10T21:22:15.608Z,102352.63
2022-08-10T21:25:01.742Z,102355.78
2022-08-10T21:27:59.407Z,102355.38
2022-08-10T21:31:03.423Z,102353.41
2022-08-10T21:33:45.251Z,102347.91
2022-08-10T21:36:31.130Z,102351.03
2022-08-10T21:39:11.235Z,102345.13
2022-08-10T21:42:28.092Z,102347.09
2022-08-10T21:45:58.368Z,102352.56
2022-08-10T21:49:03.337Z,102356.91
2022-08-10T21:52:06.352Z,102353.34
2022-08-10T21:54:51.593Z,102350.94
2022-08-10T21:57:44.159Z,102347.34
2022-08-10T22:00:32.648Z,102352.47
2022-08-10T22:03:22.382Z,102340.22
2022-08-10T22:06:11.100Z,102348.88
2022-08-10T22:09:00.562Z,102349.66
2022-08-10T22:11:49.934Z,102349.63
2022-08-10T22:14:46.918Z,102351.97
2022-08-10T22:18:01.185Z,102349.56
2022-08-10T22:20:45.305Z,102353.53
2022-08-10T22:23:40.644Z,102350.78
2022-08-10T22:26:56.670Z,102347.19
2022-08-10T22:29:57.713Z,102353.44
2022-08-10T22:32:50.787Z,102347.50
2022-08-10T22:36:08.922Z,102353.00
2022-08-10T22:40:05.592Z,102344.69
2022-08-10T22:42:59.170Z,102349.72
2022-08-10T22:45:53.838Z,102342.97
2022-08-10T22:48:39.582Z,102348.03
2022-08-10T22:51:11.479Z,102342.91
2022-08-10T22:54:31.413Z,102348.75
2022-08-10T22:57:19.288Z,102346.00
2022-08-10T22:59:47.264Z,102346.38
2022-08-10T23:02:29.643Z,102344.75
2022-08-10T23:05:03.043Z,102343.97
2022-08-10T23:07:31.989Z,102348.69
2022-08-10T23:10:05.426Z,102347.44
2022-08-10T23:12:39.280Z,102343.91
2022-08-10T23:15:27.490Z,102345.09
2022-08-10T23:18:15.831Z,102342.34
2022-08-10T23:20:44.266Z,102348.63
2022-08-10T23:23:23.646Z,102346.59
2022-08-10T23:25:57.266Z,102342.69
2022-08-10T23:28:38.695Z,102343.78
2022-08-10T23:31:12.123Z,102342.13
2022-08-10T23:33:41.054Z,102340.97
2022-08-10T23:36:33.683Z,102344.50
2022-08-10T23:39:27.114Z,102339.31
2022-08-10T23:41:54.910Z,102334.94
2022-08-10T23:44:22.737Z,102335.69
2022-08-10T23:46:49.982Z,102335.28
2022-08-10T23:49:18.962Z,102333.38
2022-08-10T23:51:55.078Z,102336.88
2022-08-10T23:54:24.877Z,102333.25
2022-08-10T23:57:01.170Z,102339.13
2022-08-10T23:59:32.099Z,102335.56
